createdAt,value
2023-04-04T00:00:35.723Z,9.14
2023-04-04T00:03:02.992Z,9.05
2023-04-04T00:05:30.218Z,8.97
2023-04-04T00:07:57.361Z,8.89
2023-04-04T00:10:24.471Z,8.96
2023-04-04T00:12:51.805Z,8.92
2023-04-04T00:15:18.919Z,8.89
2023-04-04T00:17:46.047Z,8.77
2023-04-04T00:20:14.348Z,8.75
2023-04-04T00:22:41.493Z,8.79
2023-04-04T00:25:09.684Z,8.60
2023-04-04T00:27:36.787Z,8.78
2023-04-04T00:30:04.076Z,8.64
2023-04-04T00:32:31.288Z,8.73
2023-04-04T00:34:58.979Z,8.64
2023-04-04T00:37:26.076Z,8.68
2023-04-04T00:39:53.288Z,8.74
2023-04-04T00:42:20.531Z,8.78
2023-04-04T00:44:47.682Z,8.64
2023-04-04T00:47:14.881Z,8.42
2023-04-04T00:49:42.065Z,8.43
2023-04-04T00:52:09.186Z,8.47
2023-04-04T00:54:36.398Z,8.46
2023-04-04T00:57:07.008Z,8.51
2023-04-04T00:59:34.379Z,8.54
2023-04-04T01:02:01.688Z,8.46
2023-04-04T01:04:32.056Z,8.42
2023-04-04T01:06:59.687Z,8.39
2023-04-04T01:09:27.539Z,8.42
2023-04-04T01:11:57.284Z,8.47
2023-04-04T01:14:25.859Z,8.29
2023-04-04T01:16:53.792Z,8.22
2023-04-04T01:19:46.911Z,8.28
2023-04-04T01:22:18.292Z,8.34
2023-04-04T01:24:47.158Z,8.28
2023-04-04T01:27:14.884Z,8.21
2023-04-04T01:29:48.388Z,8.26
2023-04-04T01:32:19.593Z,8.17
2023-04-04T01:34:54.414Z,8.10
2023-04-04T01:37:21.689Z,8.07
2023-04-04T01:39:52.675Z,8.17
2023-04-04T01:42:20.899Z,8.17
2023-04-04T01:44:54.236Z,8.21
2023-04-04T01:47:21.991Z,8.11
2023-04-04T01:49:49.227Z,8.10
2023-04-04T01:52:17.066Z,8.13
2023-04-04T01:54:44.101Z,8.04
2023-04-04T01:57:11.216Z,8.00
2023-04-04T01:59:38.399Z,7.85
2023-04-04T02:02:05.864Z,7.89
2023-04-04T02:04:32.964Z,7.85
2023-04-04T02:07:00.198Z,7.85
2023-04-04T02:09:27.465Z,7.93
2023-04-04T02:11:54.793Z,7.84
2023-04-04T02:14:21.972Z,7.92
2023-04-04T02:16:49.987Z,7.83
2023-04-04T02:19:17.217Z,7.78
2023-04-04T02:21:44.548Z,7.71
2023-04-04T02:24:11.726Z,7.88
2023-04-04T02:26:39.122Z,7.71
2023-04-04T02:29:06.420Z,7.63
2023-04-04T02:31:33.924Z,7.56
2023-04-04T02:34:01.903Z,7.51
2023-04-04T02:36:29.227Z,7.53
2023-04-04T02:38:57.604Z,7.50
2023-04-04T02:41:26.542Z,7.49
2023-04-04T02:43:53.787Z,7.48
2023-04-04T02:46:21.976Z,7.39
2023-04-04T02:48:55.184Z,7.50
2023-04-04T02:51:22.958Z,7.58
2023-04-04T02:53:50.214Z,7.69
2023-04-04T02:56:24.934Z,7.61
2023-04-04T02:58:52.398Z,7.48
2023-04-04T03:01:19.712Z,7.52
2023-04-04T03:03:47.441Z,7.24
2023-04-04T03:06:18.453Z,7.10
2023-04-04T03:08:48.809Z,7.30
2023-04-04T03:11:21.293Z,7.35
2023-04-04T03:13:51.657Z,7.37
2023-04-04T03:16:22.384Z,7.41
2023-04-04T03:18:52.008Z,7.42
2023-04-04T03:21:21.689Z,7.32
2023-04-04T03:23:48.819Z,7.29
2023-04-04T03:26:15.902Z,7.33
2023-04-04T03:28:43.148Z,7.47
2023-04-04T03:31:11.842Z,7.36
2023-04-04T03:33:43.024Z,7.25
2023-04-04T03:36:11.910Z,7.26
2023-04-04T03:38:39.294Z,7.38
2023-04-04T03:41:07.339Z,7.25
2023-04-04T03:43:34.717Z,7.19
2023-04-04T03:46:02.946Z,7.26
2023-04-04T03:48:30.664Z,7.12
2023-04-04T03:50:58.228Z,7.08
2023-04-04T03:53:26.147Z,7.04
2023-04-04T03:55:55.274Z,7.05
2023-04-04T03:58:22.777Z,7.07
2023-04-04T04:00:51.263Z,7.12
2023-04-04T04:03:18.495Z,7.04
2023-04-04T04:05:47.484Z,7.01
2023-04-04T04:08:14.583Z,6.82
2023-04-04T04:10:41.968Z,6.72
2023-04-04T04:13:09.409Z,6.80
2023-04-04T04:15:37.365Z,6.83
2023-04-04T04:18:07.342Z,6.84
2023-04-04T04:20:34.537Z,6.81
2023-04-04T04:23:01.672Z,6.89
2023-04-04T04:25:30.396Z,6.85
2023-04-04T04:28:34.107Z,6.86
2023-04-04T04:31:09.067Z,6.88
2023-04-04T04:33:43.028Z,6.89
2023-04-04T04:36:10.760Z,6.88
2023-04-04T04:38:47.986Z,6.66
2023-04-04T04:41:16.343Z,6.78
2023-04-04T04:43:47.431Z,6.77
2023-04-04T04:46:15.525Z,6.87
2023-04-04T04:48:42.691Z,6.80
2023-04-04T04:51:11.232Z,6.74
2023-04-04T04:53:43.363Z,6.75
2023-04-04T04:56:10.713Z,6.58
2023-04-04T04:58:41.773Z,6.57
2023-04-04T05:01:11.202Z,6.52
2023-04-04T05:03:40.445Z,6.51
2023-04-04T05:06:11.242Z,6.83
2023-04-04T05:08:38.959Z,6.69
2023-04-04T05:11:19.961Z,6.65
2023-04-04T05:13:47.264Z,6.64
2023-04-04T05:16:14.879Z,6.47
2023-04-04T05:18:45.684Z,6.61
2023-04-04T05:21:13.647Z,6.65
2023-04-04T05:23:40.981Z,6.68
2023-04-04T05:26:09.035Z,6.64
2023-04-04T05:28:40.610Z,6.79
2023-04-04T05:31:07.856Z,6.82
2023-04-04T05:33:36.401Z,6.71
2023-04-04T05:36:12.773Z,6.96
2023-04-04T05:38:45.704Z,6.95
2023-04-04T05:41:12.903Z,7.00
2023-04-04T05:43:41.144Z,6.99
2023-04-04T05:46:14.023Z,7.06
2023-04-04T05:48:46.413Z,7.16
2023-04-04T05:51:14.291Z,7.48
2023-04-04T05:53:50.920Z,7.43
2023-04-04T05:56:25.102Z,7.43
2023-04-04T05:58:53.945Z,7.83
2023-04-04T06:01:21.397Z,7.82
2023-04-04T06:03:51.929Z,8.60
2023-04-04T06:06:25.203Z,8.90
2023-04-04T06:08:53.801Z,9.12
2023-04-04T06:11:24.307Z,9.29
2023-04-04T06:13:55.161Z,9.51
2023-04-04T06:16:23.414Z,9.80
2023-04-04T06:18:51.033Z,10.29
2023-04-04T06:21:18.164Z,10.65
2023-04-04T06:23:45.453Z,11.01
2023-04-04T06:26:12.807Z,11.42
2023-04-04T06:28:50.983Z,11.70
2023-04-04T06:31:38.473Z,11.80
2023-04-04T06:34:10.383Z,12.34
2023-04-04T06:36:50.372Z,13.19
2023-04-04T06:39:17.490Z,13.57
2023-04-04T06:41:48.028Z,14.68
2023-04-04T06:44:15.438Z,16.12
2023-04-04T06:46:42.610Z,16.16
2023-04-04T06:49:09.816Z,17.47
2023-04-04T06:51:37.083Z,18.53
2023-04-04T06:54:04.208Z,20.00
2023-04-04T06:56:31.481Z,19.08
2023-04-04T06:58:58.739Z,20.25
2023-04-04T07:01:26.337Z,20.06
2023-04-04T07:03:54.400Z,19.64
2023-04-04T07:06:25.245Z,19.86
2023-04-04T07:08:53.475Z,19.27
2023-04-04T07:11:20.718Z,19.27
2023-04-04T07:13:48.112Z,18.59
2023-04-04T07:16:15.639Z,17.69
2023-04-04T07:18:44.224Z,16.43
2023-04-04T07:21:11.654Z,16.39
2023-04-04T07:23:38.835Z,17.60
2023-04-04T07:26:05.963Z,18.89
2023-04-04T07:28:33.270Z,18.58
2023-04-04T07:31:01.793Z,20.82
2023-04-04T07:33:29.256Z,21.03
2023-04-04T07:35:56.484Z,21.97
2023-04-04T07:38:23.592Z,20.79
2023-04-04T07:40:51.087Z,20.79
2023-04-04T07:43:18.215Z,20.62
2023-04-04T07:45:45.616Z,19.28
2023-04-04T07:48:12.809Z,19.92
2023-04-04T07:50:40.198Z,19.25
2023-04-04T07:53:07.507Z,19.19
2023-04-04T07:55:34.646Z,20.80
2023-04-04T07:58:01.750Z,20.80
2023-04-04T08:00:28.905Z,20.59
2023-04-04T08:02:56.532Z,20.48
2023-04-04T08:05:23.983Z,21.93
2023-04-04T08:07:51.170Z,22.75
2023-04-04T08:10:19.204Z,23.25
2023-04-04T08:12:46.477Z,23.52
2023-04-04T08:15:13.655Z,22.81
2023-04-04T08:17:40.940Z,23.53
2023-04-04T08:20:08.191Z,23.05
2023-04-04T08:22:35.502Z,23.21
2023-04-04T08:25:03.437Z,22.27
2023-04-04T08:27:30.537Z,22.23
2023-04-04T08:29:57.832Z,22.52
2023-04-04T08:32:25.096Z,21.51
2023-04-04T08:34:52.290Z,21.68
2023-04-04T08:37:19.404Z,20.46
2023-04-04T08:39:46.463Z,19.12
2023-04-04T08:42:16.825Z,20.73
2023-04-04T08:44:45.482Z,21.24
2023-04-04T08:47:13.471Z,20.97
2023-04-04T08:49:43.273Z,19.09
2023-04-04T08:52:11.974Z,20.12
2023-04-04T08:54:40.223Z,20.42
2023-04-04T08:57:08.582Z,21.05
2023-04-04T08:59:36.145Z,22.09
2023-04-04T09:02:09.316Z,21.50
2023-04-04T09:04:37.241Z,21.56
2023-04-04T09:07:05.596Z,20.38
2023-04-04T09:09:33.696Z,20.91
2023-04-04T09:12:02.052Z,20.61
2023-04-04T09:14:33.711Z,19.01
2023-04-04T09:17:00.986Z,19.50
2023-04-04T09:19:28.417Z,19.90
2023-04-04T09:21:55.613Z,19.81
2023-04-04T09:24:22.797Z,20.42
2023-04-04T09:26:54.350Z,21.74
2023-04-04T09:29:21.879Z,22.22
2023-04-04T09:31:50.140Z,22.02
2023-04-04T09:34:18.100Z,23.18
2023-04-04T09:36:46.123Z,20.33
2023-04-04T09:39:13.522Z,20.75
2023-04-04T09:41:41.297Z,21.31
2023-04-04T09:44:11.064Z,20.84
2023-04-04T09:46:38.946Z,21.28
2023-04-04T09:49:12.705Z,20.47
2023-04-04T09:51:42.595Z,20.63
2023-04-04T09:54:18.589Z,20.69
2023-04-04T09:56:49.685Z,20.05
2023-04-04T09:59:18.461Z,19.99
2023-04-04T10:01:45.865Z,21.17
2023-04-04T10:04:14.488Z,21.76
2023-04-04T10:06:43.422Z,21.56
2023-04-04T10:09:10.602Z,19.83
2023-04-04T10:11:38.926Z,21.68
2023-04-04T10:14:06.838Z,21.81
2023-04-04T10:16:37.106Z,21.84
2023-04-04T10:19:05.888Z,22.07
2023-04-04T10:21:33.557Z,20.72
2023-04-04T10:24:03.459Z,21.51
2023-04-04T10:26:30.708Z,21.76
2023-04-04T10:28:58.251Z,20.50
2023-04-04T10:31:25.954Z,20.82
2023-04-04T10:34:05.025Z,20.69
2023-04-04T10:36:36.655Z,21.44
2023-04-04T10:39:07.116Z,20.26
2023-04-04T10:41:35.534Z,20.68
2023-04-04T10:44:09.653Z,20.18
2023-04-04T10:46:40.997Z,19.37
2023-04-04T10:49:08.512Z,19.46
2023-04-04T10:51:45.124Z,20.20
2023-04-04T10:54:16.311Z,19.94
2023-04-04T10:56:43.971Z,19.97
2023-04-04T10:59:15.097Z,20.45
2023-04-04T11:01:49.433Z,20.52
2023-04-04T11:04:20.378Z,21.49
2023-04-04T11:07:10.372Z,20.79
2023-04-04T11:09:46.600Z,20.73
2023-04-04T11:12:20.118Z,20.48
2023-04-04T11:14:56.643Z,19.64
2023-04-04T11:17:42.835Z,19.77
2023-04-04T11:20:17.166Z,19.58
2023-04-04T11:22:45.672Z,18.88
2023-04-04T11:25:25.100Z,19.07
2023-04-04T11:27:56.565Z,19.05
2023-04-04T11:30:24.370Z,18.95
2023-04-04T11:33:03.715Z,19.12
2023-04-04T11:35:33.955Z,20.33
2023-04-04T11:38:01.139Z,18.96
2023-04-04T11:40:35.948Z,18.70
2023-04-04T11:43:07.469Z,18.89
2023-04-04T11:45:34.940Z,18.41
2023-04-04T11:48:03.368Z,17.79
2023-04-04T11:50:40.153Z,16.94
2023-04-04T11:53:11.070Z,17.95
2023-04-04T11:55:46.984Z,18.48
2023-04-04T11:58:16.079Z,18.54
2023-04-04T12:00:44.209Z,19.12
2023-04-04T12:03:12.393Z,18.30
2023-04-04T12:05:43.283Z,18.84
2023-04-04T12:08:11.324Z,18.47
2023-04-04T12:10:39.351Z,18.05
2023-04-04T12:13:07.427Z,17.23
2023-04-04T12:15:36.149Z,17.30
2023-04-04T12:18:06.348Z,18.23
2023-04-04T12:20:33.499Z,18.67
2023-04-04T12:23:00.848Z,18.08
2023-04-04T12:25:29.601Z,18.46
2023-04-04T12:27:57.193Z,18.53
2023-04-04T12:30:24.696Z,18.61
2023-04-04T12:32:51.895Z,18.13
2023-04-04T12:35:19.190Z,18.66
2023-04-04T12:38:10.793Z,18.22
2023-04-04T12:40:38.752Z,17.55
2023-04-04T12:43:09.142Z,18.40
2023-04-04T12:45:39.907Z,18.31
2023-04-04T12:48:12.219Z,17.95
2023-04-04T12:50:52.902Z,17.60
2023-04-04T12:53:28.855Z,17.89
2023-04-04T12:56:00.413Z,18.77
2023-04-04T12:58:27.778Z,18.54
2023-04-04T13:00:55.504Z,18.28
2023-04-04T13:03:23.577Z,18.05
2023-04-04T13:05:52.432Z,18.03
2023-04-04T13:08:19.793Z,17.78
2023-04-04T13:10:59.435Z,17.52
2023-04-04T13:13:33.332Z,16.38
2023-04-04T13:16:00.839Z,17.58
2023-04-04T13:18:33.252Z,18.29
2023-04-04T13:21:00.391Z,18.17
2023-04-04T13:23:27.588Z,18.44
2023-04-04T13:25:54.753Z,19.01
2023-04-04T13:28:21.841Z,18.70
2023-04-04T13:30:49.642Z,18.35
2023-04-04T13:33:17.634Z,16.99
2023-04-04T13:35:47.531Z,17.24
2023-04-04T13:38:15.127Z,17.11
2023-04-04T13:40:42.238Z,17.34
2023-04-04T13:43:11.352Z,16.67
2023-04-04T13:45:39.112Z,17.42
2023-04-04T13:48:06.410Z,17.44
2023-04-04T13:50:34.665Z,17.02
2023-04-04T13:53:01.904Z,16.92
2023-04-04T13:55:29.039Z,17.12
2023-04-04T13:57:56.319Z,16.89
2023-04-04T14:00:23.640Z,16.63
2023-04-04T14:02:54.188Z,17.01
2023-04-04T14:05:22.942Z,17.28
2023-04-04T14:07:50.177Z,17.32
2023-04-04T14:10:17.376Z,17.59
2023-04-04T14:12:44.408Z,16.80
2023-04-04T14:15:12.230Z,17.10
2023-04-04T14:17:39.454Z,17.37
2023-04-04T14:20:07.862Z,17.29
2023-04-04T14:22:35.468Z,17.18
2023-04-04T14:25:03.051Z,16.59
2023-04-04T14:27:30.188Z,16.50
2023-04-04T14:29:57.350Z,16.39
2023-04-04T14:32:25.620Z,16.16
2023-04-04T14:34:52.739Z,16.07
2023-04-04T14:37:20.370Z,16.47
2023-04-04T14:39:47.567Z,16.71
2023-04-04T14:42:14.895Z,16.74
2023-04-04T14:44:44.179Z,16.62
2023-04-04T14:47:11.288Z,16.69
2023-04-04T14:49:38.331Z,16.65
2023-04-04T14:52:05.469Z,16.80
2023-04-04T14:54:32.520Z,16.54
2023-04-04T14:56:59.732Z,16.74
2023-04-04T14:59:26.851Z,16.61
2023-04-04T15:01:53.907Z,16.10
2023-04-04T15:04:21.277Z,15.85
2023-04-04T15:06:48.573Z,15.68
2023-04-04T15:09:16.377Z,15.93
2023-04-04T15:11:43.513Z,15.55
2023-04-04T15:14:10.657Z,15.63
2023-04-04T15:16:38.505Z,15.78
2023-04-04T15:19:05.571Z,15.65
2023-04-04T15:21:32.788Z,15.72
2023-04-04T15:23:59.933Z,15.86
2023-04-04T15:26:27.107Z,15.61
2023-04-04T15:28:54.273Z,15.95
2023-04-04T15:31:21.479Z,15.89
2023-04-04T15:33:48.681Z,15.45
2023-04-04T15:36:16.027Z,15.60
2023-04-04T15:38:43.125Z,15.36
2023-04-04T15:41:10.222Z,15.47
2023-04-04T15:43:37.325Z,15.26
2023-04-04T15:46:04.789Z,15.21
2023-04-04T15:48:32.158Z,15.11
2023-04-04T15:51:02.308Z,15.39
2023-04-04T15:53:30.026Z,15.01
2023-04-04T15:55:57.336Z,15.10
2023-04-04T15:58:25.569Z,15.22
2023-04-04T16:00:53.128Z,14.82
2023-04-04T16:03:20.654Z,14.83
2023-04-04T16:05:48.020Z,14.81
2023-04-04T16:08:15.169Z,14.50
2023-04-04T16:10:44.088Z,14.47
2023-04-04T16:13:11.329Z,14.72
2023-04-04T16:15:38.600Z,14.72
2023-04-04T16:18:05.795Z,14.55
2023-04-04T16:20:32.981Z,14.68
2023-04-04T16:23:00.143Z,14.49
2023-04-04T16:25:27.288Z,14.38
2023-04-04T16:27:54.348Z,14.31
2023-04-04T16:30:21.579Z,13.97
2023-04-04T16:32:49.445Z,13.84
2023-04-04T16:35:16.657Z,14.26
2023-04-04T16:37:43.774Z,14.27
2023-04-04T16:40:11.902Z,14.13
2023-04-04T16:42:40.615Z,14.08
2023-04-04T16:45:09.255Z,14.04
2023-04-04T16:47:36.913Z,14.05
2023-04-04T16:50:04.849Z,13.85
2023-04-04T16:52:31.901Z,13.69
2023-04-04T16:54:59.087Z,13.48
2023-04-04T16:57:26.865Z,13.36
2023-04-04T16:59:54.014Z,13.19
2023-04-04T17:02:21.145Z,13.15
2023-04-04T17:04:48.379Z,13.00
2023-04-04T17:07:15.886Z,13.06
2023-04-04T17:09:43.088Z,12.98
2023-04-04T17:12:10.303Z,12.92
2023-04-04T17:14:37.419Z,12.83
2023-04-04T17:17:05.556Z,12.81
2023-04-04T17:19:34.869Z,12.91
2023-04-04T17:22:02.715Z,12.53
2023-04-04T17:24:29.856Z,12.52
2023-04-04T17:26:58.306Z,12.42
2023-04-04T17:29:26.987Z,12.24
2023-04-04T17:31:55.593Z,12.04
2023-04-04T17:34:23.360Z,12.00
2023-04-04T17:36:51.198Z,12.06
2023-04-04T17:39:18.390Z,11.97
2023-04-04T17:41:48.772Z,11.93
2023-04-04T17:44:16.358Z,11.83
2023-04-04T17:46:43.565Z,11.68
2023-04-04T17:49:10.849Z,11.71
2023-04-04T17:51:38.004Z,11.65
2023-04-04T17:54:05.580Z,11.63
2023-04-04T17:56:32.620Z,11.53
2023-04-04T17:58:59.786Z,11.40
2023-04-04T18:01:28.067Z,11.40
2023-04-04T18:03:55.842Z,11.45
2023-04-04T18:06:23.909Z,11.51
2023-04-04T18:08:51.509Z,11.26
2023-04-04T18:11:18.530Z,11.15
2023-04-04T18:13:45.644Z,11.05
2023-04-04T18:16:12.831Z,11.03
2023-04-04T18:18:40.664Z,10.93
2023-04-04T18:21:08.344Z,10.95
2023-04-04T18:23:35.534Z,10.84
2023-04-04T18:26:02.706Z,10.92
2023-04-04T18:28:29.788Z,10.72
2023-04-04T18:30:57.771Z,10.50
2023-04-04T18:33:25.194Z,10.65
2023-04-04T18:35:52.867Z,10.65
2023-04-04T18:38:20.142Z,10.49
2023-04-04T18:40:47.262Z,10.48
2023-04-04T18:43:14.466Z,10.29
2023-04-04T18:45:41.629Z,10.36
2023-04-04T18:48:09.041Z,10.29
2023-04-04T18:50:36.629Z,10.15
2023-04-04T18:53:03.740Z,10.30
2023-04-04T18:55:31.253Z,10.34
2023-04-04T18:57:58.295Z,10.24
2023-04-04T19:00:25.848Z,10.45
2023-04-04T19:02:53.076Z,10.58
2023-04-04T19:05:22.359Z,10.49
2023-04-04T19:07:51.159Z,10.37
2023-04-04T19:10:18.529Z,10.42
2023-04-04T19:12:45.715Z,10.38
2023-04-04T19:15:12.965Z,10.54
2023-04-04T19:17:40.542Z,10.50
2023-04-04T19:20:08.441Z,10.31
2023-04-04T19:22:35.584Z,10.16
2023-04-04T19:25:02.762Z,10.10
2023-04-04T19:27:29.856Z,10.09
2023-04-04T19:29:57.095Z,10.04
2023-04-04T19:32:27.225Z,10.10
2023-04-04T19:34:54.627Z,10.17
2023-04-04T19:37:21.787Z,10.24
2023-04-04T19:39:49.068Z,10.00
2023-04-04T19:42:28.260Z,9.95
2023-04-04T19:44:55.770Z,9.92
2023-04-04T19:47:22.917Z,9.82
2023-04-04T19:49:52.005Z,9.87
2023-04-04T19:52:22.782Z,9.96
2023-04-04T19:54:50.077Z,10.00
2023-04-04T19:57:20.598Z,10.03
2023-04-04T20:00:03.768Z,9.90
2023-04-04T20:02:51.907Z,9.90
2023-04-04T20:05:32.289Z,9.71
2023-04-04T20:08:00.432Z,9.82
2023-04-04T20:10:37.901Z,9.88
2023-04-04T20:13:07.926Z,9.79
2023-04-04T20:15:43.791Z,9.55
2023-04-04T20:18:11.128Z,9.64
2023-04-04T20:20:50.442Z,9.53
2023-04-04T20:23:17.865Z,9.45
2023-04-04T20:25:45.004Z,9.49
2023-04-04T20:28:38.144Z,9.34
2023-04-04T20:31:06.619Z,9.45
2023-04-04T20:33:35.482Z,9.55
2023-04-04T20:36:08.857Z,9.39
2023-04-04T20:38:36.895Z,9.49
2023-04-04T20:41:10.411Z,9.44
2023-04-04T20:43:38.327Z,9.48
2023-04-04T20:46:05.448Z,9.39
2023-04-04T20:48:32.592Z,9.33
2023-04-04T20:50:59.688Z,9.45
2023-04-04T20:53:27.534Z,9.31
2023-04-04T20:55:54.582Z,9.46
2023-04-04T20:58:29.051Z,9.37
2023-04-04T21:00:57.665Z,9.34
2023-04-04T21:03:24.702Z,9.30
2023-04-04T21:05:52.804Z,9.30
2023-04-04T21:08:19.902Z,9.37
2023-04-04T21:10:51.295Z,9.31
2023-04-04T21:13:28.652Z,9.24
2023-04-04T21:15:59.117Z,9.26
2023-04-04T21:18:28.709Z,9.32
2023-04-04T21:21:07.895Z,9.29
2023-04-04T21:23:40.367Z,9.17
2023-04-04T21:26:08.285Z,9.18
2023-04-04T21:28:37.233Z,9.03
2023-04-04T21:31:12.031Z,9.01
2023-04-04T21:33:46.400Z,8.92
2023-04-04T21:36:26.790Z,8.94
2023-04-04T21:38:54.996Z,8.76
2023-04-04T21:41:32.154Z,8.54
2023-04-04T21:44:00.743Z,8.48
2023-04-04T21:46:28.836Z,8.63
2023-04-04T21:48:56.214Z,8.41
2023-04-04T21:51:23.399Z,8.55
2023-04-04T21:53:50.993Z,9.14
2023-04-04T21:56:18.379Z,8.99
2023-04-04T21:58:45.572Z,9.01
2023-04-04T22:01:12.707Z,8.78
2023-04-04T22:03:40.677Z,8.58
2023-04-04T22:06:07.905Z,8.75
2023-04-04T22:08:34.964Z,8.82
2023-04-04T22:11:03.148Z,8.48
2023-04-04T22:13:33.389Z,8.44
2023-04-04T22:16:01.436Z,8.41
2023-04-04T22:18:33.234Z,8.55
2023-04-04T22:21:04.288Z,8.39
2023-04-04T22:23:37.597Z,8.35
2023-04-04T22:26:05.382Z,8.61
2023-04-04T22:28:37.414Z,8.26
2023-04-04T22:31:05.571Z,8.23
2023-04-04T22:33:34.089Z,8.19
2023-04-04T22:36:01.738Z,8.06
2023-04-04T22:38:29.240Z,8.16
2023-04-04T22:40:56.989Z,8.36
2023-04-04T22:43:25.671Z,8.29
2023-04-04T22:45:53.213Z,8.32
2023-04-04T22:48:24.151Z,8.28
2023-04-04T22:50:55.555Z,8.36
2023-04-04T22:53:26.075Z,8.35
2023-04-04T22:55:54.036Z,8.26
2023-04-04T22:58:21.825Z,8.27
2023-04-04T23:00:49.003Z,8.30
2023-04-04T23:03:16.145Z,8.19
2023-04-04T23:05:43.306Z,8.14
2023-04-04T23:08:10.816Z,8.17
2023-04-04T23:10:38.086Z,8.08
2023-04-04T23:13:05.282Z,8.16
2023-04-04T23:15:35.499Z,8.11
2023-04-04T23:18:02.908Z,8.03
2023-04-04T23:20:32.198Z,7.79
2023-04-04T23:22:59.427Z,7.73
2023-04-04T23:25:26.829Z,7.57
2023-04-04T23:27:54.285Z,7.50
2023-04-04T23:30:23.227Z,7.47
2023-04-04T23:32:50.531Z,7.42
2023-04-04T23:35:17.746Z,7.51
2023-04-04T23:37:44.859Z,7.35
2023-04-04T23:40:12.199Z,7.38
2023-04-04T23:42:39.254Z,7.29
2023-04-04T23:45:06.763Z,7.18
2023-04-04T23:47:34.219Z,7.05
2023-04-04T23:50:01.580Z,6.99
2023-04-04T23:52:28.990Z,6.88
2023-04-04T23:54:56.035Z,6.80
2023-04-04T23:57:23.118Z,6.84
2023-04-04T23:59:50.269Z,6.68
